sensor_id;sensor_type;location;lat;lon;timestamp;P1;durP1;ratioP1;P2;durP2;ratioP2
57389;SDS011;43217;52.694;6.214;2024-01-15T00:00:01;54.00;;;16.98;;
57389;SDS011;43217;52.694;6.214;2024-01-15T00:02:28;10.93;;;2.60;;
57389;SDS011;43217;52.694;6.214;2024-01-15T00:04:54;19.83;;;7.03;;
57389;SDS011;43217;52.694;6.214;2024-01-15T00:07:19;19.65;;;6.32;;
57389;SDS011;43217;52.694;6.214;2024-01-15T00:09:45;21.17;;;8.55;;
57389;SDS011;43217;52.694;6.214;2024-01-15T00:12:10;13.15;;;4.43;;
57389;SDS011;43217;52.694;6.214;2024-01-15T00:14:36;15.63;;;4.63;;
57389;SDS011;43217;52.694;6.214;2024-01-15T00:17:02;14.73;;;3.65;;
57389;SDS011;43217;52.694;6.214;2024-01-15T00:19:27;14.43;;;3.05;;
57389;SDS011;43217;52.694;6.214;2024-01-15T00:21:53;11.70;;;3.25;;
57389;SDS011;43217;52.694;6.214;2024-01-15T00:24:18;15.30;;;4.35;;
57389;SDS011;43217;52.694;6.214;2024-01-15T00:26:44;13.38;;;3.33;;
57389;SDS011;43217;52.694;6.214;2024-01-15T00:29:10;14.18;;;4.13;;
57389;SDS011;43217;52.694;6.214;2024-01-15T00:31:35;12.98;;;3.22;;
57389;SDS011;43217;52.694;6.214;2024-01-15T00:34:01;10.82;;;2.83;;
57389;SDS011;43217;52.694;6.214;2024-01-15T00:36:27;10.52;;;2.70;;
57389;SDS011;43217;52.694;6.214;2024-01-15T00:38:53;9.88;;;2.42;;
57389;SDS011;43217;52.694;6.214;2024-01-15T00:41:19;9.07;;;2.67;;
57389;SDS011;43217;52.694;6.214;2024-01-15T00:43:44;11.95;;;2.97;;
57389;SDS011;43217;52.694;6.214;2024-01-15T00:46:10;9.68;;;2.42;;
57389;SDS011;43217;52.694;6.214;2024-01-15T00:48:36;12.32;;;2.42;;
57389;SDS011;43217;52.694;6.214;2024-01-15T00:51:02;12.25;;;2.42;;
57389;SDS011;43217;52.694;6.214;2024-01-15T00:53:31;10.90;;;2.67;;
57389;SDS011;43217;52.694;6.214;2024-01-15T00:55:57;15.00;;;3.45;;
57389;SDS011;43217;52.694;6.214;2024-01-15T00:58:22;11.52;;;2.40;;
57389;SDS011;43217;52.694;6.214;2024-01-15T01:00:48;11.70;;;2.45;;
57389;SDS011;43217;52.694;6.214;2024-01-15T01:03:13;14.07;;;2.65;;
57389;SDS011;43217;52.694;6.214;2024-01-15T01:05:39;11.40;;;2.13;;
57389;SDS011;43217;52.694;6.214;2024-01-15T01:08:05;15.90;;;2.40;;
57389;SDS011;43217;52.694;6.214;2024-01-15T01:10:30;10.32;;;2.25;;
57389;SDS011;43217;52.694;6.214;2024-01-15T01:12:56;8.93;;;2.22;;
57389;SDS011;43217;52.694;6.214;2024-01-15T01:15:22;12.02;;;2.78;;
57389;SDS011;43217;52.694;6.214;2024-01-15T01:17:47;9.68;;;2.35;;
57389;SDS011;43217;52.694;6.214;2024-01-15T01:20:13;14.60;;;2.10;;
57389;SDS011;43217;52.694;6.214;2024-01-15T01:22:40;11.40;;;2.33;;
57389;SDS011;43217;52.694;6.214;2024-01-15T01:25:06;9.05;;;2.30;;
57389;SDS011;43217;52.694;6.214;2024-01-15T01:27:32;11.82;;;2.72;;
57389;SDS011;43217;52.694;6.214;2024-01-15T01:29:57;13.80;;;2.15;;
57389;SDS011;43217;52.694;6.214;2024-01-15T01:32:23;9.13;;;2.15;;
57389;SDS011;43217;52.694;6.214;2024-01-15T01:34:49;13.32;;;2.55;;
57389;SDS011;43217;52.694;6.214;2024-01-15T01:37:14;14.35;;;3.25;;
57389;SDS011;43217;52.694;6.214;2024-01-15T01:39:43;10.70;;;2.47;;
57389;SDS011;43217;52.694;6.214;2024-01-15T01:42:09;12.43;;;2.45;;
57389;SDS011;43217;52.694;6.214;2024-01-15T01:44:35;9.68;;;2.22;;
57389;SDS011;43217;52.694;6.214;2024-01-15T01:47:01;11.32;;;2.75;;
57389;SDS011;43217;52.694;6.214;2024-01-15T01:49:27;14.73;;;2.67;;
57389;SDS011;43217;52.694;6.214;2024-01-15T01:51:55;15.05;;;2.75;;
57389;SDS011;43217;52.694;6.214;2024-01-15T01:54:22;12.38;;;2.25;;
57389;SDS011;43217;52.694;6.214;2024-01-15T01:56:49;9.85;;;1.88;;
57389;SDS011;43217;52.694;6.214;2024-01-15T01:59:16;5.50;;;1.10;;
57389;SDS011;43217;52.694;6.214;2024-01-15T02:01:42;7.03;;;1.60;;
57389;SDS011;43217;52.694;6.214;2024-01-15T02:04:09;7.13;;;1.42;;
57389;SDS011;43217;52.694;6.214;2024-01-15T02:06:36;4.28;;;1.20;;
57389;SDS011;43217;52.694;6.214;2024-01-15T02:09:01;7.88;;;1.38;;
57389;SDS011;43217;52.694;6.214;2024-01-15T02:11:27;5.82;;;1.35;;
57389;SDS011;43217;52.694;6.214;2024-01-15T02:13:53;6.07;;;1.50;;
57389;SDS011;43217;52.694;6.214;2024-01-15T02:16:19;8.60;;;1.60;;
57389;SDS011;43217;52.694;6.214;2024-01-15T02:18:46;8.80;;;1.88;;
57389;SDS011;43217;52.694;6.214;2024-01-15T02:21:11;9.15;;;1.95;;
57389;SDS011;43217;52.694;6.214;2024-01-15T02:23:37;13.45;;;2.55;;
57389;SDS011;43217;52.694;6.214;2024-01-15T02:26:04;15.43;;;3.80;;
57389;SDS011;43217;52.694;6.214;2024-01-15T02:28:30;12.75;;;2.80;;
57389;SDS011;43217;52.694;6.214;2024-01-15T02:30:57;9.90;;;2.10;;
57389;SDS011;43217;52.694;6.214;2024-01-15T02:33:23;7.63;;;1.40;;
57389;SDS011;43217;52.694;6.214;2024-01-15T02:35:49;8.55;;;1.35;;
57389;SDS011;43217;52.694;6.214;2024-01-15T02:38:17;5.68;;;1.20;;
57389;SDS011;43217;52.694;6.214;2024-01-15T02:40:44;4.53;;;1.08;;
57389;SDS011;43217;52.694;6.214;2024-01-15T02:43:10;6.90;;;1.30;;
57389;SDS011;43217;52.694;6.214;2024-01-15T02:45:36;6.72;;;1.13;;
57389;SDS011;43217;52.694;6.214;2024-01-15T02:48:01;8.65;;;1.73;;
57389;SDS011;43217;52.694;6.214;2024-01-15T02:50:27;7.05;;;1.75;;
57389;SDS011;43217;52.694;6.214;2024-01-15T02:52:53;5.03;;;1.30;;
57389;SDS011;43217;52.694;6.214;2024-01-15T02:55:18;4.22;;;1.25;;
57389;SDS011;43217;52.694;6.214;2024-01-15T02:57:44;10.18;;;2.15;;
57389;SDS011;43217;52.694;6.214;2024-01-15T03:00:10;8.32;;;1.95;;
57389;SDS011;43217;52.694;6.214;2024-01-15T03:02:36;7.68;;;1.55;;
57389;SDS011;43217;52.694;6.214;2024-01-15T03:05:08;8.40;;;1.73;;
57389;SDS011;43217;52.694;6.214;2024-01-15T03:07:34;9.35;;;1.67;;
57389;SDS011;43217;52.694;6.214;2024-01-15T03:10:00;11.40;;;1.88;;
57389;SDS011;43217;52.694;6.214;2024-01-15T03:12:25;11.13;;;2.20;;
57389;SDS011;43217;52.694;6.214;2024-01-15T03:14:51;9.57;;;1.88;;
57389;SDS011;43217;52.694;6.214;2024-01-15T03:17:16;10.05;;;1.70;;
57389;SDS011;43217;52.694;6.214;2024-01-15T03:19:42;8.57;;;2.03;;
57389;SDS011;43217;52.694;6.214;2024-01-15T03:22:08;9.93;;;2.10;;
57389;SDS011;43217;52.694;6.214;2024-01-15T03:24:34;10.32;;;2.33;;
57389;SDS011;43217;52.694;6.214;2024-01-15T03:27:00;8.75;;;2.00;;
57389;SDS011;43217;52.694;6.214;2024-01-15T03:29:26;7.82;;;1.98;;
57389;SDS011;43217;52.694;6.214;2024-01-15T03:31:52;10.23;;;2.13;;
57389;SDS011;43217;52.694;6.214;2024-01-15T03:34:17;12.93;;;1.83;;
57389;SDS011;43217;52.694;6.214;2024-01-15T03:36:43;12.02;;;2.33;;
57389;SDS011;43217;52.694;6.214;2024-01-15T03:39:09;11.88;;;2.67;;
57389;SDS011;43217;52.694;6.214;2024-01-15T03:41:35;11.10;;;2.13;;
57389;SDS011;43217;52.694;6.214;2024-01-15T03:44:00;11.23;;;2.28;;
57389;SDS011;43217;52.694;6.214;2024-01-15T03:46:26;12.02;;;2.70;;
57389;SDS011;43217;52.694;6.214;2024-01-15T03:48:52;12.05;;;2.47;;
57389;SDS011;43217;52.694;6.214;2024-01-15T03:51:17;13.63;;;2.42;;
57389;SDS011;43217;52.694;6.214;2024-01-15T03:53:43;9.32;;;2.72;;
57389;SDS011;43217;52.694;6.214;2024-01-15T03:56:09;11.70;;;2.47;;
57389;SDS011;43217;52.694;6.214;2024-01-15T03:58:35;7.90;;;1.88;;
57389;SDS011;43217;52.694;6.214;2024-01-15T04:01:00;14.93;;;2.42;;
57389;SDS011;43217;52.694;6.214;2024-01-15T04:03:26;10.25;;;1.77;;
57389;SDS011;43217;52.694;6.214;2024-01-15T04:05:52;11.38;;;2.42;;
57389;SDS011;43217;52.694;6.214;2024-01-15T04:08:17;9.85;;;1.88;;
57389;SDS011;43217;52.694;6.214;2024-01-15T04:10:43;14.30;;;2.50;;
57389;SDS011;43217;52.694;6.214;2024-01-15T04:13:08;10.15;;;1.88;;
57389;SDS011;43217;52.694;6.214;2024-01-15T04:15:34;10.10;;;1.90;;
57389;SDS011;43217;52.694;6.214;2024-01-15T04:18:01;8.82;;;1.80;;
57389;SDS011;43217;52.694;6.214;2024-01-15T04:20:27;7.57;;;1.10;;
57389;SDS011;43217;52.694;6.214;2024-01-15T04:22:53;5.63;;;1.30;;
57389;SDS011;43217;52.694;6.214;2024-01-15T04:25:18;5.25;;;1.30;;
57389;SDS011;43217;52.694;6.214;2024-01-15T04:27:44;5.05;;;1.20;;
57389;SDS011;43217;52.694;6.214;2024-01-15T04:30:10;7.45;;;1.42;;
57389;SDS011;43217;52.694;6.214;2024-01-15T04:32:35;4.97;;;1.38;;
57389;SDS011;43217;52.694;6.214;2024-01-15T04:35:01;5.55;;;1.20;;
57389;SDS011;43217;52.694;6.214;2024-01-15T04:37:27;6.90;;;1.42;;
57389;SDS011;43217;52.694;6.214;2024-01-15T04:39:53;6.03;;;1.30;;
57389;SDS011;43217;52.694;6.214;2024-01-15T04:42:20;6.87;;;1.20;;
57389;SDS011;43217;52.694;6.214;2024-01-15T04:44:46;6.95;;;1.60;;
57389;SDS011;43217;52.694;6.214;2024-01-15T04:47:12;6.45;;;1.10;;
57389;SDS011;43217;52.694;6.214;2024-01-15T04:49:37;6.97;;;1.20;;
57389;SDS011;43217;52.694;6.214;2024-01-15T04:52:03;7.50;;;1.30;;
57389;SDS011;43217;52.694;6.214;2024-01-15T04:54:28;6.93;;;1.52;;
57389;SDS011;43217;52.694;6.214;2024-01-15T04:56:54;9.02;;;2.00;;
57389;SDS011;43217;52.694;6.214;2024-01-15T04:59:20;8.23;;;1.63;;
57389;SDS011;43217;52.694;6.214;2024-01-15T05:01:45;7.93;;;1.60;;
57389;SDS011;43217;52.694;6.214;2024-01-15T05:04:11;8.40;;;1.48;;
57389;SDS011;43217;52.694;6.214;2024-01-15T05:06:36;7.88;;;1.85;;
57389;SDS011;43217;52.694;6.214;2024-01-15T05:09:02;9.93;;;1.70;;
57389;SDS011;43217;52.694;6.214;2024-01-15T05:11:29;11.00;;;1.67;;
57389;SDS011;43217;52.694;6.214;2024-01-15T05:13:54;9.98;;;1.83;;
57389;SDS011;43217;52.694;6.214;2024-01-15T05:16:20;9.13;;;1.85;;
57389;SDS011;43217;52.694;6.214;2024-01-15T05:18:46;11.30;;;2.20;;
57389;SDS011;43217;52.694;6.214;2024-01-15T05:21:11;7.47;;;1.60;;
57389;SDS011;43217;52.694;6.214;2024-01-15T05:23:37;8.40;;;1.52;;
57389;SDS011;43217;52.694;6.214;2024-01-15T05:26:03;14.27;;;2.72;;
57389;SDS011;43217;52.694;6.214;2024-01-15T05:28:29;13.13;;;2.33;;
57389;SDS011;43217;52.694;6.214;2024-01-15T05:30:54;10.90;;;2.65;;
57389;SDS011;43217;52.694;6.214;2024-01-15T05:33:20;11.90;;;2.38;;
57389;SDS011;43217;52.694;6.214;2024-01-15T05:35:49;9.77;;;2.15;;
57389;SDS011;43217;52.694;6.214;2024-01-15T05:38:15;9.43;;;1.55;;
57389;SDS011;43217;52.694;6.214;2024-01-15T05:40:42;8.07;;;1.67;;
57389;SDS011;43217;52.694;6.214;2024-01-15T05:43:07;9.02;;;2.20;;
57389;SDS011;43217;52.694;6.214;2024-01-15T05:45:34;9.65;;;1.52;;
57389;SDS011;43217;52.694;6.214;2024-01-15T05:47:59;5.57;;;1.75;;
57389;SDS011;43217;52.694;6.214;2024-01-15T05:50:25;10.18;;;1.98;;
57389;SDS011;43217;52.694;6.214;2024-01-15T05:52:50;12.50;;;2.33;;
57389;SDS011;43217;52.694;6.214;2024-01-15T05:55:17;9.40;;;1.70;;
57389;SDS011;43217;52.694;6.214;2024-01-15T05:57:43;7.88;;;1.48;;
57389;SDS011;43217;52.694;6.214;2024-01-15T06:00:09;9.68;;;1.80;;
57389;SDS011;43217;52.694;6.214;2024-01-15T06:02:37;6.72;;;1.75;;
57389;SDS011;43217;52.694;6.214;2024-01-15T06:05:03;11.95;;;2.05;;
57389;SDS011;43217;52.694;6.214;2024-01-15T06:07:29;12.85;;;2.15;;
57389;SDS011;43217;52.694;6.214;2024-01-15T06:09:54;12.85;;;2.17;;
57389;SDS011;43217;52.694;6.214;2024-01-15T06:12:22;7.43;;;1.65;;
57389;SDS011;43217;52.694;6.214;2024-01-15T06:14:48;13.77;;;1.55;;
57389;SDS011;43217;52.694;6.214;2024-01-15T06:17:13;8.20;;;1.98;;
57389;SDS011;43217;52.694;6.214;2024-01-15T06:19:39;10.27;;;2.20;;
57389;SDS011;43217;52.694;6.214;2024-01-15T06:22:05;10.48;;;1.83;;
57389;SDS011;43217;52.694;6.214;2024-01-15T06:24:30;9.07;;;2.25;;
57389;SDS011;43217;52.694;6.214;2024-01-15T06:26:56;8.23;;;1.75;;
57389;SDS011;43217;52.694;6.214;2024-01-15T06:29:21;11.13;;;1.80;;
57389;SDS011;43217;52.694;6.214;2024-01-15T06:31:50;10.18;;;1.85;;
57389;SDS011;43217;52.694;6.214;2024-01-15T06:34:16;8.60;;;1.75;;
57389;SDS011;43217;52.694;6.214;2024-01-15T06:36:41;7.82;;;1.65;;
57389;SDS011;43217;52.694;6.214;2024-01-15T06:39:07;8.98;;;2.08;;
57389;SDS011;43217;52.694;6.214;2024-01-15T06:41:32;8.48;;;2.00;;
57389;SDS011;43217;52.694;6.214;2024-01-15T06:43:58;8.70;;;2.38;;
57389;SDS011;43217;52.694;6.214;2024-01-15T06:46:24;8.18;;;2.05;;
57389;SDS011;43217;52.694;6.214;2024-01-15T06:48:49;13.68;;;2.75;;
57389;SDS011;43217;52.694;6.214;2024-01-15T06:51:15;9.85;;;1.92;;
57389;SDS011;43217;52.694;6.214;2024-01-15T06:53:41;7.40;;;1.73;;
57389;SDS011;43217;52.694;6.214;2024-01-15T06:56:07;10.25;;;1.52;;
57389;SDS011;43217;52.694;6.214;2024-01-15T06:58:33;11.60;;;2.10;;
57389;SDS011;43217;52.694;6.214;2024-01-15T07:00:59;9.52;;;2.08;;
57389;SDS011;43217;52.694;6.214;2024-01-15T07:03:25;10.68;;;2.25;;
57389;SDS011;43217;52.694;6.214;2024-01-15T07:05:50;10.20;;;1.83;;
57389;SDS011;43217;52.694;6.214;2024-01-15T07:08:16;6.53;;;1.60;;
57389;SDS011;43217;52.694;6.214;2024-01-15T07:10:42;7.30;;;1.90;;
57389;SDS011;43217;52.694;6.214;2024-01-15T07:13:07;10.73;;;1.80;;
57389;SDS011;43217;52.694;6.214;2024-01-15T07:15:33;8.45;;;1.73;;
57389;SDS011;43217;52.694;6.214;2024-01-15T07:17:59;8.05;;;1.65;;
57389;SDS011;43217;52.694;6.214;2024-01-15T07:20:25;12.85;;;2.10;;
57389;SDS011;43217;52.694;6.214;2024-01-15T07:22:50;9.93;;;2.75;;
57389;SDS011;43217;52.694;6.214;2024-01-15T07:25:16;9.23;;;2.22;;
57389;SDS011;43217;52.694;6.214;2024-01-15T07:27:42;7.82;;;2.22;;
57389;SDS011;43217;52.694;6.214;2024-01-15T07:30:10;8.52;;;2.20;;
57389;SDS011;43217;52.694;6.214;2024-01-15T07:32:36;14.17;;;1.97;;
57389;SDS011;43217;52.694;6.214;2024-01-15T07:35:02;7.60;;;2.20;;
57389;SDS011;43217;52.694;6.214;2024-01-15T07:37:28;13.38;;;2.35;;
57389;SDS011;43217;52.694;6.214;2024-01-15T07:39:54;16.15;;;4.03;;
57389;SDS011;43217;52.694;6.214;2024-01-15T07:42:19;12.48;;;3.63;;
57389;SDS011;43217;52.694;6.214;2024-01-15T07:44:45;10.88;;;2.65;;
57389;SDS011;43217;52.694;6.214;2024-01-15T07:47:11;10.65;;;2.80;;
57389;SDS011;43217;52.694;6.214;2024-01-15T07:49:36;10.73;;;3.75;;
57389;SDS011;43217;52.694;6.214;2024-01-15T07:52:02;8.85;;;2.42;;
57389;SDS011;43217;52.694;6.214;2024-01-15T07:54:29;10.65;;;2.75;;
57389;SDS011;43217;52.694;6.214;2024-01-15T07:57:02;8.02;;;2.33;;
57389;SDS011;43217;52.694;6.214;2024-01-15T07:59:30;13.57;;;2.30;;
57389;SDS011;43217;52.694;6.214;2024-01-15T08:01:57;11.95;;;2.75;;
57389;SDS011;43217;52.694;6.214;2024-01-15T08:04:24;14.40;;;3.83;;
57389;SDS011;43217;52.694;6.214;2024-01-15T08:06:49;10.48;;;2.85;;
57389;SDS011;43217;52.694;6.214;2024-01-15T08:09:15;10.02;;;2.30;;
57389;SDS011;43217;52.694;6.214;2024-01-15T08:11:41;13.45;;;3.13;;
57389;SDS011;43217;52.694;6.214;2024-01-15T08:14:08;12.40;;;2.95;;
57389;SDS011;43217;52.694;6.214;2024-01-15T08:16:34;13.63;;;3.00;;
57389;SDS011;43217;52.694;6.214;2024-01-15T08:19:00;11.55;;;2.85;;
57389;SDS011;43217;52.694;6.214;2024-01-15T08:21:26;11.43;;;2.95;;
57389;SDS011;43217;52.694;6.214;2024-01-15T08:23:55;9.43;;;2.55;;
57389;SDS011;43217;52.694;6.214;2024-01-15T08:26:21;7.00;;;1.93;;
57389;SDS011;43217;52.694;6.214;2024-01-15T08:28:47;9.40;;;2.58;;
57389;SDS011;43217;52.694;6.214;2024-01-15T08:31:13;8.98;;;2.80;;
57389;SDS011;43217;52.694;6.214;2024-01-15T08:33:39;11.02;;;2.45;;
57389;SDS011;43217;52.694;6.214;2024-01-15T08:36:04;5.97;;;2.00;;
57389;SDS011;43217;52.694;6.214;2024-01-15T08:38:30;11.48;;;2.50;;
57389;SDS011;43217;52.694;6.214;2024-01-15T08:40:56;10.07;;;2.58;;
57389;SDS011;43217;52.694;6.214;2024-01-15T08:43:24;10.38;;;2.65;;
57389;SDS011;43217;52.694;6.214;2024-01-15T08:45:50;8.50;;;2.55;;
57389;SDS011;43217;52.694;6.214;2024-01-15T08:48:16;8.02;;;2.13;;
57389;SDS011;43217;52.694;6.214;2024-01-15T08:50:41;9.65;;;2.30;;
57389;SDS011;43217;52.694;6.214;2024-01-15T08:53:07;12.80;;;3.25;;
57389;SDS011;43217;52.694;6.214;2024-01-15T08:55:33;14.23;;;3.33;;
57389;SDS011;43217;52.694;6.214;2024-01-15T08:57:58;10.45;;;2.50;;
57389;SDS011;43217;52.694;6.214;2024-01-15T09:00:24;7.82;;;2.15;;
57389;SDS011;43217;52.694;6.214;2024-01-15T09:02:50;12.15;;;2.30;;
57389;SDS011;43217;52.694;6.214;2024-01-15T09:05:15;10.18;;;2.47;;
57389;SDS011;43217;52.694;6.214;2024-01-15T09:07:41;13.48;;;2.70;;
57389;SDS011;43217;52.694;6.214;2024-01-15T09:10:07;13.05;;;3.22;;
57389;SDS011;43217;52.694;6.214;2024-01-15T09:12:32;9.85;;;2.85;;
57389;SDS011;43217;52.694;6.214;2024-01-15T09:14:58;10.63;;;2.10;;
57389;SDS011;43217;52.694;6.214;2024-01-15T09:17:24;11.05;;;2.42;;
57389;SDS011;43217;52.694;6.214;2024-01-15T09:19:49;10.95;;;2.47;;
57389;SDS011;43217;52.694;6.214;2024-01-15T09:22:15;6.13;;;2.25;;
57389;SDS011;43217;52.694;6.214;2024-01-15T09:24:44;9.90;;;2.60;;
57389;SDS011;43217;52.694;6.214;2024-01-15T09:27:10;13.10;;;2.58;;
57389;SDS011;43217;52.694;6.214;2024-01-15T09:29:36;14.15;;;2.33;;
57389;SDS011;43217;52.694;6.214;2024-01-15T09:32:05;8.80;;;1.95;;
57389;SDS011;43217;52.694;6.214;2024-01-15T09:34:32;8.25;;;1.90;;
57389;SDS011;43217;52.694;6.214;2024-01-15T09:36:58;10.45;;;2.35;;
57389;SDS011;43217;52.694;6.214;2024-01-15T09:39:25;9.48;;;2.25;;
57389;SDS011;43217;52.694;6.214;2024-01-15T09:41:51;9.35;;;2.42;;
57389;SDS011;43217;52.694;6.214;2024-01-15T09:44:18;5.97;;;2.10;;
57389;SDS011;43217;52.694;6.214;2024-01-15T09:46:44;6.50;;;1.67;;
57389;SDS011;43217;52.694;6.214;2024-01-15T09:49:11;8.25;;;1.73;;
57389;SDS011;43217;52.694;6.214;2024-01-15T09:51:37;5.20;;;1.20;;
57389;SDS011;43217;52.694;6.214;2024-01-15T09:54:04;4.37;;;1.20;;
57389;SDS011;43217;52.694;6.214;2024-01-15T09:56:30;3.80;;;1.20;;
57389;SDS011;43217;52.694;6.214;2024-01-15T09:58:56;6.65;;;1.50;;
57389;SDS011;43217;52.694;6.214;2024-01-15T10:01:22;3.70;;;1.17;;
57389;SDS011;43217;52.694;6.214;2024-01-15T10:03:50;6.63;;;1.55;;
57389;SDS011;43217;52.694;6.214;2024-01-15T10:06:16;6.13;;;1.35;;
57389;SDS011;43217;52.694;6.214;2024-01-15T10:08:43;3.40;;;1.50;;
57389;SDS011;43217;52.694;6.214;2024-01-15T10:11:15;5.88;;;1.88;;
57389;SDS011;43217;52.694;6.214;2024-01-15T10:13:42;5.55;;;2.15;;
57389;SDS011;43217;52.694;6.214;2024-01-15T10:16:08;8.10;;;2.35;;
57389;SDS011;43217;52.694;6.214;2024-01-15T10:18:34;11.35;;;2.42;;
57389;SDS011;43217;52.694;6.214;2024-01-15T10:21:02;8.52;;;2.20;;
57389;SDS011;43217;52.694;6.214;2024-01-15T10:23:28;6.97;;;2.30;;
57389;SDS011;43217;52.694;6.214;2024-01-15T10:28:22;6.90;;;1.90;;
57389;SDS011;43217;52.694;6.214;2024-01-15T10:30:52;13.95;;;2.28;;
57389;SDS011;43217;52.694;6.214;2024-01-15T10:33:21;10.07;;;2.40;;
57389;SDS011;43217;52.694;6.214;2024-01-15T10:35:50;7.38;;;1.80;;
57389;SDS011;43217;52.694;6.214;2024-01-15T10:38:21;7.95;;;2.15;;
57389;SDS011;43217;52.694;6.214;2024-01-15T10:40:51;7.23;;;2.30;;
57389;SDS011;43217;52.694;6.214;2024-01-15T10:43:18;7.55;;;2.30;;
57389;SDS011;43217;52.694;6.214;2024-01-15T10:45:44;6.80;;;2.00;;
57389;SDS011;43217;52.694;6.214;2024-01-15T10:48:11;7.60;;;1.80;;
57389;SDS011;43217;52.694;6.214;2024-01-15T10:50:37;9.93;;;2.40;;
57389;SDS011;43217;52.694;6.214;2024-01-15T10:53:03;11.60;;;2.40;;
57389;SDS011;43217;52.694;6.214;2024-01-15T10:55:30;6.82;;;1.75;;
57389;SDS011;43217;52.694;6.214;2024-01-15T10:57:58;6.75;;;1.65;;
57389;SDS011;43217;52.694;6.214;2024-01-15T11:00:24;4.28;;;1.17;;
57389;SDS011;43217;52.694;6.214;2024-01-15T11:02:51;5.20;;;1.40;;
57389;SDS011;43217;52.694;6.214;2024-01-15T11:05:20;3.20;;;1.45;;
57389;SDS011;43217;52.694;6.214;2024-01-15T11:07:47;3.22;;;1.17;;
57389;SDS011;43217;52.694;6.214;2024-01-15T11:13:21;2.70;;;1.00;;
57389;SDS011;43217;52.694;6.214;2024-01-15T11:15:54;2.30;;;0.63;;
57389;SDS011;43217;52.694;6.214;2024-01-15T11:18:27;2.72;;;0.80;;
57389;SDS011;43217;52.694;6.214;2024-01-15T11:23:43;1.58;;;0.90;;
57389;SDS011;43217;52.694;6.214;2024-01-15T11:29:09;3.85;;;1.10;;
57389;SDS011;43217;52.694;6.214;2024-01-15T11:31:57;3.40;;;0.90;;
57389;SDS011;43217;52.694;6.214;2024-01-15T11:37:23;4.35;;;1.30;;
57389;SDS011;43217;52.694;6.214;2024-01-15T11:39:54;4.30;;;1.10;;
57389;SDS011;43217;52.694;6.214;2024-01-15T11:42:21;3.42;;;0.93;;
57389;SDS011;43217;52.694;6.214;2024-01-15T11:44:48;4.60;;;1.10;;
57389;SDS011;43217;52.694;6.214;2024-01-15T11:47:14;6.50;;;1.20;;
57389;SDS011;43217;52.694;6.214;2024-01-15T11:50:13;6.25;;;1.73;;
57389;SDS011;43217;52.694;6.214;2024-01-15T11:52:36;8.85;;;1.80;;
57389;SDS011;43217;52.694;6.214;2024-01-15T11:57:47;8.63;;;2.42;;
57389;SDS011;43217;52.694;6.214;2024-01-15T12:00:16;8.00;;;1.80;;
57389;SDS011;43217;52.694;6.214;2024-01-15T12:02:43;10.63;;;2.55;;
57389;SDS011;43217;52.694;6.214;2024-01-15T12:05:11;13.20;;;3.03;;
57389;SDS011;43217;52.694;6.214;2024-01-15T12:07:40;11.98;;;2.25;;
57389;SDS011;43217;52.694;6.214;2024-01-15T12:10:14;16.75;;;2.67;;
57389;SDS011;43217;52.694;6.214;2024-01-15T12:15:17;8.18;;;2.05;;
57389;SDS011;43217;52.694;6.214;2024-01-15T12:17:43;7.65;;;2.15;;
57389;SDS011;43217;52.694;6.214;2024-01-15T12:20:11;5.40;;;1.60;;
57389;SDS011;43217;52.694;6.214;2024-01-15T12:22:37;9.35;;;1.92;;
57389;SDS011;43217;52.694;6.214;2024-01-15T12:25:03;6.38;;;1.83;;
57389;SDS011;43217;52.694;6.214;2024-01-15T12:27:29;13.52;;;2.33;;
57389;SDS011;43217;52.694;6.214;2024-01-15T12:29:55;8.70;;;2.13;;
57389;SDS011;43217;52.694;6.214;2024-01-15T12:32:20;8.82;;;2.08;;
57389;SDS011;43217;52.694;6.214;2024-01-15T12:34:49;8.85;;;2.00;;
57389;SDS011;43217;52.694;6.214;2024-01-15T12:37:17;8.10;;;1.90;;
57389;SDS011;43217;52.694;6.214;2024-01-15T12:39:44;5.57;;;1.65;;
57389;SDS011;43217;52.694;6.214;2024-01-15T12:42:10;5.63;;;1.60;;
57389;SDS011;43217;52.694;6.214;2024-01-15T12:44:36;6.68;;;1.60;;
57389;SDS011;43217;52.694;6.214;2024-01-15T12:47:05;7.10;;;1.17;;
57389;SDS011;43217;52.694;6.214;2024-01-15T12:49:31;7.22;;;1.45;;
57389;SDS011;43217;52.694;6.214;2024-01-15T12:51:57;3.40;;;1.20;;
57389;SDS011;43217;52.694;6.214;2024-01-15T12:54:24;4.15;;;1.48;;
57389;SDS011;43217;52.694;6.214;2024-01-15T12:56:50;3.15;;;1.15;;
57389;SDS011;43217;52.694;6.214;2024-01-15T12:59:16;8.73;;;1.70;;
57389;SDS011;43217;52.694;6.214;2024-01-15T13:01:44;2.83;;;1.00;;
57389;SDS011;43217;52.694;6.214;2024-01-15T13:04:10;8.65;;;1.83;;
57389;SDS011;43217;52.694;6.214;2024-01-15T13:06:36;7.75;;;1.45;;
57389;SDS011;43217;52.694;6.214;2024-01-15T13:09:02;5.70;;;1.70;;
57389;SDS011;43217;52.694;6.214;2024-01-15T13:11:30;5.30;;;2.15;;
57389;SDS011;43217;52.694;6.214;2024-01-15T13:13:58;8.80;;;1.80;;
57389;SDS011;43217;52.694;6.214;2024-01-15T13:16:24;5.95;;;1.88;;
57389;SDS011;43217;52.694;6.214;2024-01-15T13:18:53;11.95;;;1.73;;
57389;SDS011;43217;52.694;6.214;2024-01-15T13:21:19;7.05;;;1.73;;
57389;SDS011;43217;52.694;6.214;2024-01-15T13:23:44;9.02;;;2.10;;
57389;SDS011;43217;52.694;6.214;2024-01-15T13:26:10;11.00;;;2.00;;
57389;SDS011;43217;52.694;6.214;2024-01-15T13:28:36;6.05;;;1.95;;
57389;SDS011;43217;52.694;6.214;2024-01-15T13:31:01;6.82;;;1.77;;
57389;SDS011;43217;52.694;6.214;2024-01-15T13:33:27;8.10;;;2.17;;
57389;SDS011;43217;52.694;6.214;2024-01-15T13:35:53;10.95;;;2.70;;
57389;SDS011;43217;52.694;6.214;2024-01-15T13:38:18;8.13;;;2.50;;
57389;SDS011;43217;52.694;6.214;2024-01-15T13:40:44;11.98;;;2.63;;
57389;SDS011;43217;52.694;6.214;2024-01-15T13:43:10;10.13;;;2.67;;
57389;SDS011;43217;52.694;6.214;2024-01-15T13:45:36;12.77;;;3.63;;
57389;SDS011;43217;52.694;6.214;2024-01-15T13:48:04;9.57;;;3.00;;
57389;SDS011;43217;52.694;6.214;2024-01-15T13:50:36;7.80;;;2.90;;
57389;SDS011;43217;52.694;6.214;2024-01-15T13:53:02;11.60;;;2.58;;
57389;SDS011;43217;52.694;6.214;2024-01-15T13:55:31;13.52;;;3.03;;
57389;SDS011;43217;52.694;6.214;2024-01-15T13:57:57;9.20;;;2.42;;
57389;SDS011;43217;52.694;6.214;2024-01-15T14:00:22;13.35;;;3.13;;
57389;SDS011;43217;52.694;6.214;2024-01-15T14:02:48;10.55;;;3.00;;
57389;SDS011;43217;52.694;6.214;2024-01-15T14:05:14;9.68;;;2.15;;
57389;SDS011;43217;52.694;6.214;2024-01-15T14:07:39;9.48;;;2.45;;
57389;SDS011;43217;52.694;6.214;2024-01-15T14:10:06;10.75;;;2.55;;
57389;SDS011;43217;52.694;6.214;2024-01-15T14:12:33;10.83;;;2.23;;
57389;SDS011;43217;52.694;6.214;2024-01-15T14:14:59;9.43;;;2.58;;
57389;SDS011;43217;52.694;6.214;2024-01-15T14:17:26;10.20;;;2.43;;
57389;SDS011;43217;52.694;6.214;2024-01-15T14:19:52;9.65;;;3.47;;
57389;SDS011;43217;52.694;6.214;2024-01-15T14:22:18;13.52;;;4.07;;
57389;SDS011;43217;52.694;6.214;2024-01-15T14:24:44;11.65;;;3.70;;
57389;SDS011;43217;52.694;6.214;2024-01-15T14:27:09;10.90;;;3.20;;
57389;SDS011;43217;52.694;6.214;2024-01-15T14:29:35;10.13;;;2.97;;
57389;SDS011;43217;52.694;6.214;2024-01-15T14:32:01;14.55;;;2.95;;
57389;SDS011;43217;52.694;6.214;2024-01-15T14:34:26;10.65;;;2.65;;
57389;SDS011;43217;52.694;6.214;2024-01-15T14:36:52;11.38;;;3.38;;
57389;SDS011;43217;52.694;6.214;2024-01-15T14:39:19;9.90;;;2.50;;
57389;SDS011;43217;52.694;6.214;2024-01-15T14:41:44;11.85;;;2.95;;
57389;SDS011;43217;52.694;6.214;2024-01-15T14:44:11;8.52;;;2.25;;
57389;SDS011;43217;52.694;6.214;2024-01-15T14:46:37;11.60;;;2.33;;
57389;SDS011;43217;52.694;6.214;2024-01-15T14:49:03;12.30;;;2.53;;
57389;SDS011;43217;52.694;6.214;2024-01-15T14:51:29;8.82;;;2.88;;
57389;SDS011;43217;52.694;6.214;2024-01-15T14:53:55;12.38;;;2.55;;
57389;SDS011;43217;52.694;6.214;2024-01-15T14:56:21;7.38;;;1.60;;